Time;durP1;ratioP1;P1;durP2;ratioP2;P2;SDS_P1;SDS_P2;PMS_P1;PMS_P2;Temp;Humidity;BMP_temperature;BMP_pressure;BME280_temperature;BME280_humidity;BME280_pressure;Samples;Min_cycle;Max_cycle;Signal;HPM_P1;HPM_P2
2022/12/06 00:04:15;;;;;;;48.45;25.10;;;;;;;4.40;79.79;100285.19;30731763;28;97170;-67
2022/12/06 00:19:18;;;;;;;45.85;24.50;;;;;;;4.40;79.88;100301.88;30731243;28;96709;-67
2022/12/06 00:34:19;;;;;;;38.50;19.00;;;;;;;4.37;79.68;100317.13;30748792;28;96687;-69
2022/12/06 00:49:19;;;;;;;37.40;18.67;;;;;;;4.18;79.54;100315.16;30749990;28;96764;-68
2022/12/06 01:04:20;;;;;;;35.70;17.52;;;;;;;4.12;79.88;100289.31;30748204;28;96815;-67
2022/12/06 01:19:20;;;;;;;36.50;18.55;;;;;;;4.14;80.03;100251.31;30747060;28;96808;-67
2022/12/06 01:34:20;;;;;;;38.15;16.30;;;;;;;4.18;79.87;100212.31;30745676;28;96647;-67
2022/12/06 01:49:28;;;;;;;35.25;18.20;;;;;;;4.16;79.51;100201.91;30744380;28;96711;-68
2022/12/06 02:04:30;;;;;;;30.15;16.08;;;;;;;4.20;80.01;100205.97;30742969;28;96725;-67
2022/12/06 02:19:40;;;;;;;30.73;17.23;;;;;;;4.17;79.81;100205.38;30741284;28;96758;-67
2022/12/06 02:34:46;;;;;;;28.75;16.58;;;;;;;4.16;79.81;100175.53;30740874;28;96667;-66
2022/12/06 02:49:49;;;;;;;51.78;26.33;;;;;;;4.02;79.72;100146.88;30738251;28;96657;-67
2022/12/06 03:05:01;;;;;;;42.58;21.83;;;;;;;4.04;79.91;100171.28;30736954;28;96616;-67
2022/12/06 03:20:25;;;;;;;39.10;18.77;;;;;;;4.01;80.21;100161.84;30736045;28;96844;-68
2022/12/06 03:35:31;;;;;;;39.90;20.30;;;;;;;4.12;80.04;100157.47;30733009;28;97101;-68
2022/12/06 03:50:38;;;;;;;39.50;21.92;;;;;;;4.15;80.15;100133.47;30733024;28;96650;-67
2022/12/06 04:05:38;;;;;;;34.83;18.60;;;;;;;4.10;79.99;100144.44;30745004;28;96755;-68
2022/12/06 04:51:19;;;;;;;39.13;21.27;;;;;;;3.89;80.41;100104.88;30747534;28;96719;-67
2022/12/06 05:06:19;;;;;;;35.50;19.05;;;;;;;3.85;80.67;100100.84;30743313;28;96690;-67
2022/12/06 05:21:22;;;;;;;36.67;18.88;;;;;;;3.81;80.42;100083.59;30742106;28;96746;-66
2022/12/06 05:36:25;;;;;;;30.35;17.55;;;;;;;3.61;80.52;100085.28;30742435;28;96677;-66
2022/12/06 05:51:25;;;;;;;31.50;16.27;;;;;;;3.29;81.54;100086.97;30741036;28;96737;-67
2022/12/06 06:06:26;;;;;;;29.40;15.88;;;;;;;3.21;81.78;100089.38;30739494;28;96656;-66
2022/12/06 06:21:27;;;;;;;36.63;18.13;;;;;;;3.32;82.21;100092.00;30740017;28;97004;-67
2022/12/06 06:36:27;;;;;;;26.48;14.65;;;;;;;3.48;82.36;100096.00;30738616;28;97355;-68
2022/12/06 06:51:30;;;;;;;13.35;8.18;;;;;;;3.50;81.79;100096.69;30735638;28;96708;-67
2022/12/06 07:06:30;;;;;;;12.10;7.25;;;;;;;3.49;81.57;100079.25;30734050;28;96817;-67
2022/12/06 07:21:30;;;;;;;12.25;6.38;;;;;;;3.52;81.62;100086.88;30732680;28;96873;-67
2022/12/06 07:36:32;;;;;;;11.65;7.95;;;;;;;3.43;81.22;100083.22;30731926;28;97278;-69
2022/12/06 07:51:34;;;;;;;15.35;8.93;;;;;;;3.33;81.15;100077.84;30728757;28;97379;-68
2022/12/06 08:06:34;;;;;;;13.18;8.55;;;;;;;3.27;81.12;100080.16;30729115;28;96980;-68
2022/12/06 08:21:35;;;;;;;17.02;9.07;;;;;;;3.31;81.33;100068.44;30727952;28;96969;-66
2022/12/06 08:36:37;;;;;;;14.23;9.00;;;;;;;3.27;81.07;100067.84;30728409;28;96702;-67
2022/12/06 08:51:38;;;;;;;11.00;6.68;;;;;;;3.34;81.48;100070.81;30741084;28;97410;-69
2022/12/06 09:06:40;;;;;;;14.60;6.80;;;;;;;3.38;81.27;100053.78;30745861;28;96809;-67
2022/12/06 09:21:42;;;;;;;11.13;5.78;;;;;;;3.54;81.05;100058.59;30744937;28;97236;-67
2022/12/06 09:36:49;;;;;;;12.55;7.03;;;;;;;3.53;80.73;100043.78;30743698;28;96610;-68
2022/12/06 09:52:14;;;;;;;9.55;5.75;;;;;;;3.52;80.91;100050.00;30743241;28;96514;-67
2022/12/06 10:07:20;;;;;;;10.98;7.07;;;;;;;3.62;80.92;100021.09;30739039;28;98525;-66
2022/12/06 10:22:29;;;;;;;11.60;7.32;;;;;;;3.59;80.49;99998.47;30740098;28;96941;-65
2022/12/06 10:37:58;;;;;;;10.13;6.15;;;;;;;3.54;80.21;99984.84;30737183;28;96557;-65
2022/12/06 10:53:13;;;;;;;8.88;6.28;;;;;;;3.49;80.11;99974.72;30733240;28;96704;-66
2022/12/06 11:08:25;;;;;;;10.05;6.70;;;;;;;3.38;80.44;99959.81;30732154;28;96693;-66
2022/12/06 11:23:38;;;;;;;13.80;8.40;;;;;;;3.45;80.57;99946.97;30734841;28;97493;-67
2022/12/06 11:38:41;;;;;;;14.93;8.07;;;;;;;3.51;80.17;99937.72;30729854;28;96823;-66
2022/12/06 11:53:50;;;;;;;11.73;9.85;;;;;;;3.64;79.97;99919.06;30730182;28;96645;-69
2022/12/06 12:09:00;;;;;;;7.35;4.82;;;;;;;3.75;79.70;99913.69;30730534;28;97504;-66
2022/12/06 12:24:01;;;;;;;6.55;4.93;;;;;;;3.58;79.43;99911.69;30739539;28;96655;-66
2022/12/06 12:39:02;;;;;;;8.43;5.20;;;;;;;3.43;79.37;99906.78;30748451;28;96686;-66
2022/12/06 12:54:16;;;;;;;7.00;5.07;;;;;;;3.31;79.51;99890.22;30747908;28;97544;-69
2022/12/06 13:09:25;;;;;;;;;;;;;;;3.30;79.54;99891.19;30745486;28;97278;-69
2022/12/06 13:24:32;;;;;;;8.18;5.57;;;;;;;3.21;79.48;99884.06;30745723;28;96688;-66
2022/12/06 13:39:38;;;;;;;8.63;6.43;;;;;;;3.10;79.89;99894.66;30742634;28;96528;-70
2022/12/06 13:54:38;;;;;;;12.23;7.63;;;;;;;3.07;79.62;99906.28;30739146;28;96726;-70
2022/12/06 14:09:41;;;;;;;13.48;7.93;;;;;;;2.92;79.52;99910.19;30735894;28;98122;-66
2022/12/06 14:24:53;;;;;;;11.07;7.25;;;;;;;2.89;79.69;99900.75;30739359;28;96801;-69
2022/12/06 14:39:53;;;;;;;13.45;8.35;;;;;;;2.79;79.60;99894.59;30739938;28;96688;-70
2022/12/06 14:55:17;;;;;;;12.90;7.53;;;;;;;2.69;80.08;99895.38;30735495;28;97106;-73
2022/12/06 15:10:28;;;;;;;10.53;7.33;;;;;;;2.68;79.85;99888.44;30734728;28;96789;-69
2022/12/06 15:25:28;;;;;;;9.27;7.97;;;;;;;2.64;79.83;99873.03;30733911;28;96745;-66
2022/12/06 15:40:29;;;;;;;10.90;7.22;;;;;;;2.64;80.02;99871.25;30733679;28;96697;-75
2022/12/06 15:55:29;;;;;;;12.98;8.10;;;;;;;2.68;79.76;99872.66;30730524;28;96642;-74
2022/12/06 16:10:30;;;;;;;17.55;9.45;;;;;;;2.71;79.85;99861.88;30730289;28;97400;-67
2022/12/06 16:25:31;;;;;;;17.55;11.10;;;;;;;2.65;79.66;99862.41;30727873;28;96681;-66
2022/12/06 16:40:32;;;;;;;17.58;9.52;;;;;;;2.55;80.11;99861.47;30726236;28;96704;-69
2022/12/06 16:55:33;;;;;;;18.40;10.95;;;;;;;2.45;79.95;99855.31;30725791;28;98605;-70
2022/12/06 17:10:33;;;;;;;16.23;9.80;;;;;;;2.45;80.84;99850.88;30735121;28;96755;-65
2022/12/06 17:25:33;;;;;;;15.82;10.75;;;;;;;2.55;80.65;99856.22;30743767;28;96662;-67
2022/12/06 17:40:34;;;;;;;22.35;11.20;;;;;;;2.71;80.75;99853.97;30743372;28;97242;-68
2022/12/06 17:55:34;;;;;;;17.85;10.45;;;;;;;2.78;80.92;99862.19;30742106;28;96600;-71
2022/12/06 18:10:35;;;;;;;16.58;10.35;;;;;;;2.78;80.68;99856.09;30742275;28;96863;-67
2022/12/06 18:25:39;;;;;;;14.52;10.10;;;;;;;2.71;80.71;99846.09;30739336;28;96713;-69
2022/12/06 18:40:41;;;;;;;13.73;8.35;;;;;;;2.69;80.29;99858.53;30736721;28;96784;-66
2022/12/06 18:55:42;;;;;;;11.93;7.53;;;;;;;2.70;80.23;99843.59;30738096;28;96683;-66
2022/12/06 19:10:43;;;;;;;16.00;9.70;;;;;;;2.55;80.47;99840.44;30734537;28;96865;-66
2022/12/06 19:25:43;;;;;;;13.15;7.25;;;;;;;2.55;80.57;99845.69;30734685;28;97347;-66
2022/12/06 19:40:43;;;;;;;13.38;7.80;;;;;;;2.53;80.56;99831.84;30733047;28;97033;-67
2022/12/06 19:55:45;;;;;;;14.18;8.80;;;;;;;2.47;80.25;99827.09;30732524;28;97692;-66
2022/12/06 20:10:45;;;;;;;19.50;10.50;;;;;;;2.46;80.30;99823.63;30730780;28;97197;-68
2022/12/06 20:25:47;;;;;;;18.45;10.48;;;;;;;2.46;80.51;99809.63;30730682;28;96994;-66
2022/12/06 20:40:47;;;;;;;17.08;10.23;;;;;;;2.41;80.84;99811.84;30731434;28;96659;-66
2022/12/06 20:55:47;;;;;;;18.92;11.02;;;;;;;2.25;80.38;99801.75;30748560;28;96691;-66
2022/12/06 21:10:52;;;;;;;14.80;7.88;;;;;;;2.11;80.89;99795.00;30745453;28;96791;-69
2022/12/06 21:25:54;;;;;;;17.92;9.73;;;;;;;2.16;80.54;99803.31;30745404;28;97141;-67
2022/12/06 21:40:54;;;;;;;14.18;8.20;;;;;;;2.16;80.83;99808.56;30745638;28;97175;-71
2022/12/06 21:55:54;;;;;;;16.13;8.70;;;;;;;2.14;80.96;99800.81;30744049;28;97480;-65
2022/12/06 22:10:55;;;;;;;13.02;8.15;;;;;;;2.02;81.20;99792.16;30742119;28;96722;-66
2022/12/06 22:25:56;;;;;;;14.90;8.80;;;;;;;1.96;80.96;99790.00;30740522;28;99385;-73
2022/12/06 22:40:57;;;;;;;17.42;10.00;;;;;;;1.84;81.06;99783.13;30740583;28;96952;-69
2022/12/06 22:56:01;;;;;;;11.98;7.57;;;;;;;1.86;81.13;99781.22;30739695;28;96762;-67
2022/12/06 23:11:06;;;;;;;9.90;5.53;;;;;;;1.85;81.26;99761.16;30737864;28;96765;-71
2022/12/06 23:26:12;;;;;;;11.32;7.20;;;;;;;1.78;80.73;99749.50;30737662;28;96689;-69
2022/12/06 23:41:15;;;;;;;13.80;7.00;;;;;;;1.75;81.10;99744.47;30736644;28;96620;-69
2022/12/06 23:56:17;;;;;;;6.43;4.03;;;;;;;1.82;81.47;99743.03;30735087;28;97489;-66
